sensor_id;sensor_type;location;lat;lon;timestamp;P1;durP1;ratioP1;P2;durP2;ratioP2
25301;SDS011;13243;50.888;4.724;2022-10-28T00:02:18;16.95;;;3.65;;
25301;SDS011;13243;50.888;4.724;2022-10-28T00:07:20;9.07;;;3.70;;
25301;SDS011;13243;50.888;4.724;2022-10-28T00:12:21;12.30;;;4.43;;
25301;SDS011;13243;50.888;4.724;2022-10-28T00:17:23;20.60;;;3.83;;
25301;SDS011;13243;50.888;4.724;2022-10-28T00:22:25;16.13;;;3.33;;
25301;SDS011;13243;50.888;4.724;2022-10-28T00:27:28;11.02;;;3.45;;
25301;SDS011;13243;50.888;4.724;2022-10-28T00:32:30;7.22;;;3.53;;
25301;SDS011;13243;50.888;4.724;2022-10-28T00:37:32;11.07;;;3.60;;
25301;SDS011;13243;50.888;4.724;2022-10-28T00:42:34;10.18;;;3.28;;
25301;SDS011;13243;50.888;4.724;2022-10-28T00:47:43;10.77;;;3.22;;
25301;SDS011;13243;50.888;4.724;2022-10-28T00:53:04;8.07;;;3.97;;
25301;SDS011;13243;50.888;4.724;2022-10-28T00:58:13;8.53;;;4.10;;
25301;SDS011;13243;50.888;4.724;2022-10-28T01:03:16;8.57;;;3.30;;
25301;SDS011;13243;50.888;4.724;2022-10-28T01:08:18;9.52;;;3.20;;
25301;SDS011;13243;50.888;4.724;2022-10-28T01:13:36;9.32;;;3.45;;
25301;SDS011;13243;50.888;4.724;2022-10-28T01:40:17;10.57;;;3.53;;
25301;SDS011;13243;50.888;4.724;2022-10-28T01:45:47;11.88;;;3.47;;
25301;SDS011;13243;50.888;4.724;2022-10-28T01:51:03;17.35;;;3.78;;
25301;SDS011;13243;50.888;4.724;2022-10-28T01:56:22;6.30;;;2.97;;
25301;SDS011;13243;50.888;4.724;2022-10-28T02:01:27;10.07;;;3.67;;
25301;SDS011;13243;50.888;4.724;2022-10-28T02:06:31;7.10;;;3.20;;
25301;SDS011;13243;50.888;4.724;2022-10-28T02:22:36;17.65;;;4.05;;
25301;SDS011;13243;50.888;4.724;2022-10-28T02:33:00;9.45;;;3.63;;
25301;SDS011;13243;50.888;4.724;2022-10-28T02:38:06;9.43;;;2.78;;
25301;SDS011;13243;50.888;4.724;2022-10-28T02:43:11;9.45;;;3.25;;
25301;SDS011;13243;50.888;4.724;2022-10-28T02:48:20;7.43;;;3.03;;
25301;SDS011;13243;50.888;4.724;2022-10-28T02:53:28;12.85;;;3.95;;
25301;SDS011;13243;50.888;4.724;2022-10-28T02:58:39;6.78;;;2.95;;
25301;SDS011;13243;50.888;4.724;2022-10-28T03:03:41;16.15;;;3.40;;
25301;SDS011;13243;50.888;4.724;2022-10-28T03:08:43;8.13;;;3.38;;
25301;SDS011;13243;50.888;4.724;2022-10-28T03:13:45;14.55;;;3.75;;
25301;SDS011;13243;50.888;4.724;2022-10-28T03:18:47;8.65;;;3.70;;
25301;SDS011;13243;50.888;4.724;2022-10-28T03:23:48;9.00;;;3.40;;
25301;SDS011;13243;50.888;4.724;2022-10-28T03:28:50;11.93;;;4.30;;
25301;SDS011;13243;50.888;4.724;2022-10-28T03:33:52;9.20;;;3.63;;
25301;SDS011;13243;50.888;4.724;2022-10-28T03:38:54;11.75;;;3.85;;
25301;SDS011;13243;50.888;4.724;2022-10-28T03:43:56;11.57;;;3.60;;
25301;SDS011;13243;50.888;4.724;2022-10-28T03:48:57;16.67;;;3.75;;
25301;SDS011;13243;50.888;4.724;2022-10-28T03:53:59;7.55;;;3.47;;
25301;SDS011;13243;50.888;4.724;2022-10-28T03:59:01;9.07;;;3.38;;
25301;SDS011;13243;50.888;4.724;2022-10-28T04:04:03;12.60;;;3.88;;
25301;SDS011;13243;50.888;4.724;2022-10-28T04:09:05;7.28;;;3.50;;
25301;SDS011;13243;50.888;4.724;2022-10-28T04:14:06;20.27;;;3.97;;
25301;SDS011;13243;50.888;4.724;2022-10-28T04:19:08;8.80;;;3.72;;
25301;SDS011;13243;50.888;4.724;2022-10-28T04:24:10;12.88;;;4.00;;
25301;SDS011;13243;50.888;4.724;2022-10-28T04:29:12;8.63;;;3.80;;
25301;SDS011;13243;50.888;4.724;2022-10-28T04:34:14;19.33;;;4.72;;
25301;SDS011;13243;50.888;4.724;2022-10-28T04:39:15;10.23;;;3.45;;
25301;SDS011;13243;50.888;4.724;2022-10-28T04:44:17;12.25;;;3.55;;
25301;SDS011;13243;50.888;4.724;2022-10-28T04:49:19;7.20;;;3.92;;
25301;SDS011;13243;50.888;4.724;2022-10-28T04:54:21;6.82;;;3.90;;
25301;SDS011;13243;50.888;4.724;2022-10-28T04:59:23;12.07;;;3.50;;
25301;SDS011;13243;50.888;4.724;2022-10-28T05:04:25;13.02;;;4.07;;
25301;SDS011;13243;50.888;4.724;2022-10-28T05:09:27;10.65;;;4.28;;
25301;SDS011;13243;50.888;4.724;2022-10-28T05:14:28;9.10;;;3.60;;
25301;SDS011;13243;50.888;4.724;2022-10-28T05:19:30;6.28;;;3.72;;
25301;SDS011;13243;50.888;4.724;2022-10-28T05:24:32;8.80;;;4.28;;
25301;SDS011;13243;50.888;4.724;2022-10-28T05:29:34;14.43;;;4.20;;
25301;SDS011;13243;50.888;4.724;2022-10-28T05:34:35;11.88;;;4.15;;
25301;SDS011;13243;50.888;4.724;2022-10-28T05:39:37;11.93;;;4.70;;
25301;SDS011;13243;50.888;4.724;2022-10-28T05:44:39;14.13;;;3.30;;
25301;SDS011;13243;50.888;4.724;2022-10-28T05:49:41;16.35;;;4.57;;
25301;SDS011;13243;50.888;4.724;2022-10-28T05:54:42;17.67;;;4.80;;
25301;SDS011;13243;50.888;4.724;2022-10-28T05:59:44;18.48;;;4.85;;
25301;SDS011;13243;50.888;4.724;2022-10-28T06:04:46;14.40;;;4.18;;
25301;SDS011;13243;50.888;4.724;2022-10-28T06:09:48;16.60;;;4.43;;
25301;SDS011;13243;50.888;4.724;2022-10-28T06:14:50;10.20;;;4.53;;
25301;SDS011;13243;50.888;4.724;2022-10-28T06:19:52;10.55;;;4.55;;
25301;SDS011;13243;50.888;4.724;2022-10-28T06:24:54;15.90;;;4.80;;
25301;SDS011;13243;50.888;4.724;2022-10-28T06:29:56;15.75;;;4.05;;
25301;SDS011;13243;50.888;4.724;2022-10-28T06:34:58;8.57;;;3.70;;
25301;SDS011;13243;50.888;4.724;2022-10-28T06:40:00;12.10;;;3.70;;
25301;SDS011;13243;50.888;4.724;2022-10-28T06:45:02;9.18;;;4.40;;
25301;SDS011;13243;50.888;4.724;2022-10-28T06:50:04;12.80;;;4.28;;
25301;SDS011;13243;50.888;4.724;2022-10-28T06:55:06;12.55;;;4.05;;
25301;SDS011;13243;50.888;4.724;2022-10-28T07:00:08;7.20;;;3.72;;
25301;SDS011;13243;50.888;4.724;2022-10-28T07:05:10;14.50;;;3.80;;
25301;SDS011;13243;50.888;4.724;2022-10-28T07:10:12;9.80;;;4.03;;
25301;SDS011;13243;50.888;4.724;2022-10-28T07:15:14;13.05;;;4.40;;
25301;SDS011;13243;50.888;4.724;2022-10-28T07:20:16;10.55;;;3.78;;
25301;SDS011;13243;50.888;4.724;2022-10-28T07:25:17;12.18;;;4.47;;
25301;SDS011;13243;50.888;4.724;2022-10-28T07:30:19;16.33;;;3.60;;
25301;SDS011;13243;50.888;4.724;2022-10-28T07:35:21;11.18;;;4.30;;
25301;SDS011;13243;50.888;4.724;2022-10-28T07:40:23;12.20;;;5.03;;
25301;SDS011;13243;50.888;4.724;2022-10-28T07:45:26;10.88;;;3.78;;
25301;SDS011;13243;50.888;4.724;2022-10-28T07:50:28;12.95;;;3.95;;
25301;SDS011;13243;50.888;4.724;2022-10-28T07:55:30;13.02;;;4.38;;
25301;SDS011;13243;50.888;4.724;2022-10-28T08:00:32;12.32;;;3.60;;
25301;SDS011;13243;50.888;4.724;2022-10-28T08:05:34;16.05;;;3.63;;
25301;SDS011;13243;50.888;4.724;2022-10-28T08:10:35;17.73;;;3.60;;
25301;SDS011;13243;50.888;4.724;2022-10-28T08:15:37;10.98;;;3.70;;
25301;SDS011;13243;50.888;4.724;2022-10-28T08:20:39;12.32;;;4.70;;
25301;SDS011;13243;50.888;4.724;2022-10-28T08:25:47;11.43;;;4.32;;
25301;SDS011;13243;50.888;4.724;2022-10-28T08:30:50;15.52;;;4.22;;
25301;SDS011;13243;50.888;4.724;2022-10-28T08:36:08;10.00;;;3.70;;
25301;SDS011;13243;50.888;4.724;2022-10-28T08:41:18;14.77;;;4.32;;
25301;SDS011;13243;50.888;4.724;2022-10-28T08:51:49;11.40;;;4.20;;
25301;SDS011;13243;50.888;4.724;2022-10-28T08:56:58;12.68;;;3.90;;
25301;SDS011;13243;50.888;4.724;2022-10-28T09:07:24;14.77;;;4.13;;
25301;SDS011;13243;50.888;4.724;2022-10-28T09:12:30;15.82;;;5.05;;
25301;SDS011;13243;50.888;4.724;2022-10-28T09:17:39;16.55;;;4.28;;
25301;SDS011;13243;50.888;4.724;2022-10-28T09:22:56;9.68;;;3.78;;
25301;SDS011;13243;50.888;4.724;2022-10-28T09:33:38;18.15;;;4.53;;
25301;SDS011;13243;50.888;4.724;2022-10-28T09:38:43;15.73;;;4.55;;
25301;SDS011;13243;50.888;4.724;2022-10-28T09:43:52;10.75;;;3.85;;
25301;SDS011;13243;50.888;4.724;2022-10-28T09:49:01;16.85;;;3.90;;
25301;SDS011;13243;50.888;4.724;2022-10-28T09:54:06;14.88;;;3.92;;
25301;SDS011;13243;50.888;4.724;2022-10-28T09:59:13;11.55;;;3.60;;
25301;SDS011;13243;50.888;4.724;2022-10-28T10:04:17;13.10;;;3.35;;
25301;SDS011;13243;50.888;4.724;2022-10-28T10:09:41;11.15;;;3.00;;
25301;SDS011;13243;50.888;4.724;2022-10-28T10:14:46;8.52;;;2.95;;
25301;SDS011;13243;50.888;4.724;2022-10-28T10:20:07;14.75;;;3.55;;
25301;SDS011;13243;50.888;4.724;2022-10-28T10:30:26;14.93;;;3.10;;
25301;SDS011;13243;50.888;4.724;2022-10-28T10:35:34;16.02;;;4.18;;
25301;SDS011;13243;50.888;4.724;2022-10-28T10:40:47;12.07;;;2.75;;
25301;SDS011;13243;50.888;4.724;2022-10-28T10:45:52;14.80;;;4.93;;
25301;SDS011;13243;50.888;4.724;2022-10-28T10:51:03;11.10;;;3.58;;
25301;SDS011;13243;50.888;4.724;2022-10-28T10:56:12;16.98;;;3.13;;
25301;SDS011;13243;50.888;4.724;2022-10-28T11:01:23;18.90;;;2.85;;
25301;SDS011;13243;50.888;4.724;2022-10-28T11:07:11;15.55;;;3.25;;
25301;SDS011;13243;50.888;4.724;2022-10-28T11:11:56;10.60;;;2.47;;
25301;SDS011;13243;50.888;4.724;2022-10-28T11:16:59;12.63;;;3.35;;
25301;SDS011;13243;50.888;4.724;2022-10-28T11:27:19;14.07;;;4.32;;
25301;SDS011;13243;50.888;4.724;2022-10-28T11:38:31;9.63;;;2.85;;
25301;SDS011;13243;50.888;4.724;2022-10-28T11:43:57;12.40;;;3.40;;
25301;SDS011;13243;50.888;4.724;2022-10-28T12:00:00;16.25;;;3.00;;
25301;SDS011;13243;50.888;4.724;2022-10-28T12:05:16;6.70;;;2.65;;
25301;SDS011;13243;50.888;4.724;2022-10-28T12:20:57;8.10;;;2.65;;
25301;SDS011;13243;50.888;4.724;2022-10-28T12:31:15;9.32;;;3.53;;
25301;SDS011;13243;50.888;4.724;2022-10-28T12:36:33;13.20;;;3.30;;
25301;SDS011;13243;50.888;4.724;2022-10-28T12:41:46;11.45;;;2.70;;
25301;SDS011;13243;50.888;4.724;2022-10-28T12:52:31;11.63;;;2.70;;
25301;SDS011;13243;50.888;4.724;2022-10-28T12:57:41;11.52;;;3.72;;
25301;SDS011;13243;50.888;4.724;2022-10-28T13:03:06;14.25;;;3.50;;
25301;SDS011;13243;50.888;4.724;2022-10-28T13:24:23;7.60;;;2.60;;
25301;SDS011;13243;50.888;4.724;2022-10-28T13:29:33;10.10;;;2.65;;
25301;SDS011;13243;50.888;4.724;2022-10-28T13:34:37;8.07;;;2.63;;
25301;SDS011;13243;50.888;4.724;2022-10-28T13:39:42;8.77;;;2.92;;
25301;SDS011;13243;50.888;4.724;2022-10-28T13:50:33;10.45;;;2.13;;
25301;SDS011;13243;50.888;4.724;2022-10-28T14:00:39;15.63;;;3.28;;
25301;SDS011;13243;50.888;4.724;2022-10-28T14:10:54;11.10;;;3.05;;
25301;SDS011;13243;50.888;4.724;2022-10-28T14:16:30;11.95;;;2.95;;
25301;SDS011;13243;50.888;4.724;2022-10-28T14:21:38;7.57;;;2.95;;
25301;SDS011;13243;50.888;4.724;2022-10-28T14:48:46;12.90;;;2.85;;
25301;SDS011;13243;50.888;4.724;2022-10-28T14:53:58;14.73;;;2.80;;
25301;SDS011;13243;50.888;4.724;2022-10-28T14:59:16;14.80;;;3.25;;
25301;SDS011;13243;50.888;4.724;2022-10-28T15:04:22;11.10;;;2.75;;
25301;SDS011;13243;50.888;4.724;2022-10-28T15:09:26;8.98;;;3.10;;
25301;SDS011;13243;50.888;4.724;2022-10-28T15:14:37;9.68;;;3.38;;
25301;SDS011;13243;50.888;4.724;2022-10-28T15:19:40;9.98;;;3.28;;
25301;SDS011;13243;50.888;4.724;2022-10-28T15:24:54;6.10;;;2.72;;
25301;SDS011;13243;50.888;4.724;2022-10-28T15:30:04;19.88;;;3.42;;
25301;SDS011;13243;50.888;4.724;2022-10-28T15:35:34;8.98;;;2.60;;
25301;SDS011;13243;50.888;4.724;2022-10-28T15:40:38;11.07;;;3.75;;
25301;SDS011;13243;50.888;4.724;2022-10-28T15:45:40;8.45;;;3.15;;
25301;SDS011;13243;50.888;4.724;2022-10-28T15:50:43;9.27;;;3.10;;
25301;SDS011;13243;50.888;4.724;2022-10-28T15:55:44;7.85;;;3.15;;
25301;SDS011;13243;50.888;4.724;2022-10-28T16:01:40;4.40;;;2.78;;
25301;SDS011;13243;50.888;4.724;2022-10-28T16:06:35;14.00;;;3.60;;
25301;SDS011;13243;50.888;4.724;2022-10-28T16:11:39;12.02;;;3.45;;
25301;SDS011;13243;50.888;4.724;2022-10-28T16:16:43;13.23;;;3.58;;
25301;SDS011;13243;50.888;4.724;2022-10-28T16:21:45;15.63;;;4.50;;
25301;SDS011;13243;50.888;4.724;2022-10-28T16:26:47;9.70;;;4.00;;
25301;SDS011;13243;50.888;4.724;2022-10-28T16:31:49;10.90;;;3.15;;
25301;SDS011;13243;50.888;4.724;2022-10-28T16:36:52;11.40;;;3.80;;
25301;SDS011;13243;50.888;4.724;2022-10-28T16:41:55;11.50;;;4.00;;
25301;SDS011;13243;50.888;4.724;2022-10-28T16:46:57;25.45;;;4.57;;
25301;SDS011;13243;50.888;4.724;2022-10-28T16:51:59;14.52;;;4.88;;
25301;SDS011;13243;50.888;4.724;2022-10-28T16:57:03;13.40;;;3.88;;
25301;SDS011;13243;50.888;4.724;2022-10-28T17:07:19;17.35;;;5.32;;
25301;SDS011;13243;50.888;4.724;2022-10-28T17:12:21;14.55;;;3.70;;
25301;SDS011;13243;50.888;4.724;2022-10-28T17:17:25;12.95;;;5.10;;
25301;SDS011;13243;50.888;4.724;2022-10-28T17:22:28;20.88;;;4.93;;
25301;SDS011;13243;50.888;4.724;2022-10-28T17:27:30;15.82;;;3.88;;
25301;SDS011;13243;50.888;4.724;2022-10-28T17:32:32;12.32;;;4.18;;
25301;SDS011;13243;50.888;4.724;2022-10-28T17:37:34;11.38;;;5.07;;
25301;SDS011;13243;50.888;4.724;2022-10-28T17:42:36;12.15;;;4.32;;
25301;SDS011;13243;50.888;4.724;2022-10-28T17:47:38;13.52;;;4.60;;
25301;SDS011;13243;50.888;4.724;2022-10-28T17:52:40;8.02;;;4.32;;
25301;SDS011;13243;50.888;4.724;2022-10-28T17:57:42;13.75;;;4.65;;
25301;SDS011;13243;50.888;4.724;2022-10-28T18:02:45;11.20;;;4.15;;
25301;SDS011;13243;50.888;4.724;2022-10-28T18:07:47;15.18;;;4.95;;
25301;SDS011;13243;50.888;4.724;2022-10-28T18:12:49;13.38;;;4.68;;
25301;SDS011;13243;50.888;4.724;2022-10-28T18:17:52;12.27;;;5.13;;
25301;SDS011;13243;50.888;4.724;2022-10-28T18:22:54;20.27;;;5.10;;
25301;SDS011;13243;50.888;4.724;2022-10-28T18:27:57;13.23;;;4.55;;
25301;SDS011;13243;50.888;4.724;2022-10-28T18:32:58;18.65;;;5.07;;
25301;SDS011;13243;50.888;4.724;2022-10-28T18:38:01;9.98;;;4.80;;
25301;SDS011;13243;50.888;4.724;2022-10-28T18:43:03;15.00;;;4.78;;
25301;SDS011;13243;50.888;4.724;2022-10-28T18:48:05;12.35;;;5.65;;
25301;SDS011;13243;50.888;4.724;2022-10-28T18:53:06;17.02;;;6.53;;
25301;SDS011;13243;50.888;4.724;2022-10-28T18:58:08;29.65;;;7.53;;
25301;SDS011;13243;50.888;4.724;2022-10-28T19:03:18;26.95;;;7.65;;
25301;SDS011;13243;50.888;4.724;2022-10-28T19:08:21;18.25;;;6.57;;
25301;SDS011;13243;50.888;4.724;2022-10-28T19:13:22;18.00;;;6.38;;
25301;SDS011;13243;50.888;4.724;2022-10-28T19:18:25;14.95;;;6.75;;
25301;SDS011;13243;50.888;4.724;2022-10-28T19:23:27;29.60;;;6.40;;
25301;SDS011;13243;50.888;4.724;2022-10-28T19:28:29;18.05;;;6.22;;
25301;SDS011;13243;50.888;4.724;2022-10-28T19:33:35;26.63;;;6.63;;
25301;SDS011;13243;50.888;4.724;2022-10-28T19:38:40;16.25;;;7.13;;
25301;SDS011;13243;50.888;4.724;2022-10-28T19:43:42;18.02;;;8.15;;
25301;SDS011;13243;50.888;4.724;2022-10-28T19:48:48;23.00;;;7.55;;
25301;SDS011;13243;50.888;4.724;2022-10-28T19:53:55;18.77;;;6.53;;
25301;SDS011;13243;50.888;4.724;2022-10-28T19:58:59;20.38;;;6.93;;
25301;SDS011;13243;50.888;4.724;2022-10-28T20:04:02;14.40;;;6.47;;
25301;SDS011;13243;50.888;4.724;2022-10-28T20:09:05;16.85;;;5.82;;
25301;SDS011;13243;50.888;4.724;2022-10-28T20:14:07;22.35;;;6.38;;
25301;SDS011;13243;50.888;4.724;2022-10-28T20:19:12;24.05;;;6.40;;
25301;SDS011;13243;50.888;4.724;2022-10-28T20:24:14;21.50;;;7.65;;
25301;SDS011;13243;50.888;4.724;2022-10-28T20:29:17;15.85;;;6.07;;
25301;SDS011;13243;50.888;4.724;2022-10-28T20:34:20;14.80;;;5.85;;
25301;SDS011;13243;50.888;4.724;2022-10-28T20:39:23;14.82;;;6.28;;
25301;SDS011;13243;50.888;4.724;2022-10-28T20:44:26;23.13;;;7.28;;
25301;SDS011;13243;50.888;4.724;2022-10-28T20:49:27;10.95;;;5.50;;
25301;SDS011;13243;50.888;4.724;2022-10-28T20:54:29;23.83;;;6.97;;
25301;SDS011;13243;50.888;4.724;2022-10-28T20:59:31;18.55;;;5.78;;
25301;SDS011;13243;50.888;4.724;2022-10-28T21:04:33;23.48;;;6.32;;
25301;SDS011;13243;50.888;4.724;2022-10-28T21:09:35;11.30;;;6.50;;
25301;SDS011;13243;50.888;4.724;2022-10-28T21:14:36;17.08;;;7.72;;
25301;SDS011;13243;50.888;4.724;2022-10-28T21:19:38;20.13;;;8.07;;
25301;SDS011;13243;50.888;4.724;2022-10-28T21:24:40;17.63;;;7.93;;
25301;SDS011;13243;50.888;4.724;2022-10-28T21:29:42;18.92;;;7.13;;
25301;SDS011;13243;50.888;4.724;2022-10-28T21:34:44;20.80;;;7.28;;
25301;SDS011;13243;50.888;4.724;2022-10-28T21:39:45;15.25;;;7.38;;
25301;SDS011;13243;50.888;4.724;2022-10-28T21:44:51;17.52;;;8.07;;
25301;SDS011;13243;50.888;4.724;2022-10-28T21:49:53;19.95;;;8.80;;
25301;SDS011;13243;50.888;4.724;2022-10-28T21:54:54;14.73;;;7.10;;
25301;SDS011;13243;50.888;4.724;2022-10-28T21:59:56;30.88;;;8.05;;
25301;SDS011;13243;50.888;4.724;2022-10-28T22:04:58;20.92;;;7.45;;
25301;SDS011;13243;50.888;4.724;2022-10-28T22:10:00;18.05;;;7.07;;
25301;SDS011;13243;50.888;4.724;2022-10-28T22:15:02;17.48;;;7.65;;
25301;SDS011;13243;50.888;4.724;2022-10-28T22:20:04;13.77;;;7.13;;
25301;SDS011;13243;50.888;4.724;2022-10-28T22:25:07;15.55;;;7.13;;
25301;SDS011;13243;50.888;4.724;2022-10-28T22:30:11;17.02;;;8.02;;
25301;SDS011;13243;50.888;4.724;2022-10-28T22:35:14;15.70;;;8.50;;
25301;SDS011;13243;50.888;4.724;2022-10-28T22:40:16;20.40;;;7.95;;
25301;SDS011;13243;50.888;4.724;2022-10-28T22:45:17;16.40;;;6.53;;
25301;SDS011;13243;50.888;4.724;2022-10-28T22:50:19;12.18;;;7.40;;
25301;SDS011;13243;50.888;4.724;2022-10-28T22:55:21;19.95;;;7.55;;
25301;SDS011;13243;50.888;4.724;2022-10-28T23:00:23;14.23;;;7.43;;
25301;SDS011;13243;50.888;4.724;2022-10-28T23:05:24;19.85;;;7.57;;
25301;SDS011;13243;50.888;4.724;2022-10-28T23:10:26;17.20;;;7.43;;
25301;SDS011;13243;50.888;4.724;2022-10-28T23:15:29;23.08;;;7.13;;
25301;SDS011;13243;50.888;4.724;2022-10-28T23:20:31;14.93;;;6.97;;
25301;SDS011;13243;50.888;4.724;2022-10-28T23:25:35;19.38;;;7.35;;
25301;SDS011;13243;50.888;4.724;2022-10-28T23:30:36;13.63;;;6.85;;
25301;SDS011;13243;50.888;4.724;2022-10-28T23:35:38;14.27;;;6.28;;
25301;SDS011;13243;50.888;4.724;2022-10-28T23:40:42;18.27;;;6.43;;
25301;SDS011;13243;50.888;4.724;2022-10-28T23:45:43;16.38;;;7.00;;
25301;SDS011;13243;50.888;4.724;2022-10-28T23:50:45;20.48;;;7.80;;
25301;SDS011;13243;50.888;4.724;2022-10-28T23:55:48;18.63;;;7.00;;
